createdAt,value
2022-10-12T00:04:50.368Z,62.13
2022-10-12T00:09:52.464Z,62.59
2022-10-12T00:14:54.329Z,62.52
2022-10-12T00:19:56.182Z,62.60
2022-10-12T00:24:58.022Z,62.80
2022-10-12T00:29:59.911Z,62.57
2022-10-12T00:35:01.954Z,62.76
2022-10-12T00:40:04.417Z,62.79
2022-10-12T00:45:06.913Z,62.82
2022-10-12T00:50:14.890Z,62.84
2022-10-12T00:55:19.197Z,62.70
2022-10-12T01:00:22.678Z,62.83
2022-10-12T01:05:25.202Z,62.61
2022-10-12T01:10:27.087Z,62.79
2022-10-12T01:15:34.501Z,62.96
2022-10-12T01:20:42.484Z,63.00
2022-10-12T01:26:03.115Z,62.92
2022-10-12T01:31:20.922Z,62.81
2022-10-12T01:36:33.226Z,62.93
2022-10-12T01:41:39.897Z,63.10
2022-10-12T01:46:43.881Z,63.03
2022-10-12T01:52:07.389Z,63.24
2022-10-12T01:57:15.676Z,63.20
2022-10-12T02:02:40.184Z,63.27
2022-10-12T02:08:08.523Z,63.36
2022-10-12T02:13:13.742Z,63.32
2022-10-12T02:18:19.035Z,63.32
2022-10-12T02:23:24.562Z,63.36
2022-10-12T02:28:29.873Z,63.41
2022-10-12T02:33:37.503Z,63.34
2022-10-12T02:38:53.013Z,63.33
2022-10-12T02:43:59.898Z,63.17
2022-10-12T02:49:04.540Z,63.17
2022-10-12T02:54:06.682Z,63.31
2022-10-12T02:59:08.506Z,63.13
2022-10-12T03:04:10.557Z,63.26
2022-10-12T03:09:12.482Z,63.34
2022-10-12T03:14:15.392Z,63.43
2022-10-12T03:19:17.220Z,63.21
2022-10-12T03:24:19.308Z,63.43
2022-10-12T03:29:21.135Z,63.50
2022-10-12T03:34:23.076Z,63.59
2022-10-12T03:39:24.983Z,63.70
2022-10-12T03:44:27.052Z,63.49
2022-10-12T03:49:29.232Z,63.47
2022-10-12T03:54:31.056Z,63.64
2022-10-12T03:59:33.126Z,63.56
2022-10-12T04:04:35.602Z,63.62
2022-10-12T04:09:37.470Z,63.57
2022-10-12T04:14:39.392Z,63.64
2022-10-12T04:19:41.302Z,63.92
2022-10-12T04:24:43.958Z,63.88
2022-10-12T04:29:45.894Z,64.08
2022-10-12T04:34:47.902Z,64.10
2022-10-12T04:39:50.010Z,64.06
2022-10-12T04:44:51.987Z,64.12
2022-10-12T04:49:53.807Z,63.87
2022-10-12T04:54:55.719Z,64.16
2022-10-12T04:59:57.661Z,64.23
2022-10-12T05:04:59.612Z,64.02
2022-10-12T05:10:01.485Z,64.17
2022-10-12T05:15:03.504Z,64.28
2022-10-12T05:20:06.084Z,64.46
2022-10-12T05:25:08.893Z,64.27
2022-10-12T05:30:11.380Z,64.66
2022-10-12T05:35:13.243Z,64.61
2022-10-12T05:40:15.269Z,64.69
2022-10-12T05:45:17.228Z,64.66
2022-10-12T05:50:19.222Z,64.81
2022-10-12T05:55:21.220Z,64.78
2022-10-12T06:00:23.302Z,64.67
2022-10-12T06:05:25.770Z,64.82
2022-10-12T06:10:29.952Z,64.88
2022-10-12T06:15:32.283Z,64.86
2022-10-12T06:20:34.384Z,65.09
2022-10-12T06:25:36.291Z,65.30
2022-10-12T06:30:38.426Z,65.50
2022-10-12T06:35:40.200Z,65.50
2022-10-12T06:40:42.501Z,65.64
2022-10-12T06:45:44.353Z,65.58
2022-10-12T06:50:47.281Z,65.76
2022-10-12T06:55:49.472Z,65.79
2022-10-12T07:00:52.451Z,66.01
2022-10-12T07:05:54.517Z,66.06
2022-10-12T07:11:05.202Z,66.39
2022-10-12T07:16:08.190Z,66.47
2022-10-12T07:21:10.136Z,66.44
2022-10-12T07:26:12.192Z,66.54
2022-10-12T07:31:14.976Z,66.69
2022-10-12T07:36:21.558Z,66.58
2022-10-12T07:41:24.022Z,66.80
2022-10-12T07:46:26.115Z,66.94
2022-10-12T07:51:27.988Z,67.35
2022-10-12T07:56:31.688Z,67.45
2022-10-12T08:01:34.897Z,67.45
2022-10-12T08:06:37.183Z,67.47
2022-10-12T08:11:40.816Z,67.54
2022-10-12T08:16:44.310Z,67.61
2022-10-12T08:21:46.384Z,67.73
2022-10-12T08:26:48.391Z,67.67
2022-10-12T08:31:51.560Z,67.82
2022-10-12T08:36:53.600Z,67.87
2022-10-12T08:42:02.058Z,67.95
2022-10-12T08:47:38.877Z,68.01
2022-10-12T08:52:56.979Z,68.06
2022-10-12T08:57:59.010Z,68.19
2022-10-12T09:03:03.822Z,68.14
2022-10-12T09:08:23.943Z,68.56
2022-10-12T09:13:28.800Z,68.55
2022-10-12T09:18:37.072Z,68.66
2022-10-12T09:23:42.726Z,68.58
2022-10-12T09:29:20.392Z,68.75
2022-10-12T09:34:24.675Z,68.73
2022-10-12T09:39:34.010Z,68.70
2022-10-12T09:44:40.337Z,68.53
2022-10-12T09:49:43.385Z,68.35
2022-10-12T09:55:16.361Z,68.41
2022-10-12T10:00:36.090Z,68.29
2022-10-12T10:05:39.203Z,68.18
2022-10-12T10:10:56.511Z,68.06
2022-10-12T10:16:05.940Z,67.97
2022-10-12T10:21:13.272Z,67.79
2022-10-12T10:31:29.631Z,67.44
2022-10-12T10:36:34.697Z,67.30
2022-10-12T10:41:39.684Z,66.96
2022-10-12T10:46:45.160Z,66.85
2022-10-12T10:51:51.704Z,66.65
2022-10-12T10:56:59.136Z,66.60
2022-10-12T11:02:10.135Z,66.36
2022-10-12T11:07:42.609Z,66.03
2022-10-12T11:12:49.885Z,65.94
2022-10-12T11:18:03.654Z,65.88
2022-10-12T11:23:19.391Z,65.42
2022-10-12T11:28:22.886Z,65.31
2022-10-12T11:33:38.615Z,65.45
2022-10-12T11:38:44.920Z,64.82
2022-10-12T11:43:52.883Z,64.81
2022-10-12T11:49:29.321Z,64.54
2022-10-12T11:54:40.148Z,64.74
2022-10-12T11:59:41.906Z,64.71
2022-10-12T12:04:47.207Z,64.67
2022-10-12T12:09:51.019Z,64.51
2022-10-12T12:14:53.414Z,64.43
2022-10-12T12:20:01.068Z,64.34
2022-10-12T12:25:10.806Z,64.35
2022-10-12T12:30:18.361Z,64.03
2022-10-12T12:35:32.231Z,63.95
2022-10-12T12:40:35.322Z,63.92
2022-10-12T12:45:56.543Z,63.44
2022-10-12T12:51:01.799Z,63.51
2022-10-12T12:56:24.122Z,63.18
2022-10-12T13:02:11.037Z,62.96
2022-10-12T13:07:15.583Z,63.14
2022-10-12T13:12:35.577Z,62.54
2022-10-12T13:17:59.491Z,62.52
2022-10-12T13:23:06.259Z,62.43
2022-10-12T13:28:41.296Z,62.27
2022-10-12T13:33:56.617Z,62.20
2022-10-12T13:39:20.746Z,62.03
2022-10-12T13:44:31.061Z,62.03
2022-10-12T13:49:43.688Z,61.93
2022-10-12T13:54:48.748Z,62.08
2022-10-12T13:59:57.723Z,61.92
2022-10-12T14:05:02.698Z,62.16
2022-10-12T14:10:16.471Z,61.93
2022-10-12T14:15:19.795Z,61.91
2022-10-12T14:20:31.131Z,62.01
2022-10-12T14:25:33.369Z,62.04
2022-10-12T14:30:40.950Z,62.40
2022-10-12T14:35:47.966Z,62.29
2022-10-12T14:40:49.804Z,62.29
2022-10-12T14:45:52.156Z,62.45
2022-10-12T14:50:54.362Z,62.56
2022-10-12T14:55:56.284Z,62.20
2022-10-12T15:00:58.440Z,62.58
2022-10-12T15:06:00.423Z,62.74
2022-10-12T15:11:02.263Z,62.65
2022-10-12T15:16:10.325Z,62.92
2022-10-12T15:21:12.221Z,62.86
2022-10-12T15:26:16.781Z,62.97
2022-10-12T15:31:19.302Z,62.90
2022-10-12T15:36:21.252Z,63.07
2022-10-12T15:41:27.178Z,63.09
2022-10-12T15:46:29.063Z,63.48
2022-10-12T15:51:34.411Z,63.65
2022-10-12T15:56:36.861Z,63.55
2022-10-12T16:01:40.001Z,63.83
2022-10-12T16:06:41.945Z,63.98
2022-10-12T16:11:43.831Z,64.06
2022-10-12T16:16:45.752Z,64.01
2022-10-12T16:21:47.596Z,64.02
2022-10-12T16:26:50.064Z,64.12
2022-10-12T16:31:51.984Z,64.12
2022-10-12T16:36:53.956Z,64.24
2022-10-12T16:41:55.890Z,64.38
2022-10-12T16:46:58.351Z,64.42
2022-10-12T16:52:00.336Z,64.40
2022-10-12T16:57:02.330Z,64.62
2022-10-12T17:02:05.200Z,64.75
2022-10-12T17:07:07.241Z,64.74
2022-10-12T17:12:09.371Z,64.63
2022-10-12T17:17:11.394Z,64.82
2022-10-12T17:22:14.561Z,64.79
2022-10-12T17:27:17.067Z,64.85
2022-10-12T17:32:19.363Z,64.83
2022-10-12T17:37:22.047Z,64.85
2022-10-12T17:42:24.915Z,64.89
2022-10-12T17:47:26.738Z,64.85
2022-10-12T17:52:28.615Z,64.78
2022-10-12T17:57:30.513Z,64.92
2022-10-12T18:02:32.334Z,64.96
2022-10-12T18:07:34.171Z,64.99
2022-10-12T18:12:36.021Z,65.04
2022-10-12T18:17:37.903Z,64.94
2022-10-12T18:22:39.686Z,65.14
2022-10-12T18:27:42.243Z,65.04
2022-10-12T18:32:44.332Z,65.13
2022-10-12T18:37:46.167Z,65.01
2022-10-12T18:42:48.152Z,65.08
2022-10-12T18:47:50.084Z,65.11
2022-10-12T18:52:54.682Z,65.22
2022-10-12T18:57:56.502Z,65.24
2022-10-12T19:02:58.577Z,65.24
2022-10-12T19:08:00.382Z,65.34
2022-10-12T19:13:02.212Z,65.16
2022-10-12T19:18:04.945Z,65.44
2022-10-12T19:23:06.811Z,65.39
2022-10-12T19:28:08.662Z,65.52
2022-10-12T19:33:10.636Z,65.54
2022-10-12T19:38:12.927Z,65.55
2022-10-12T19:43:14.745Z,65.52
2022-10-12T19:48:17.911Z,65.63
2022-10-12T19:53:19.736Z,65.59
2022-10-12T19:58:21.706Z,65.64
2022-10-12T20:03:23.423Z,65.60
2022-10-12T20:08:25.494Z,65.67
2022-10-12T20:13:29.351Z,65.73
2022-10-12T20:18:31.897Z,65.53
2022-10-12T20:23:38.898Z,65.87
2022-10-12T20:28:41.785Z,65.69
2022-10-12T20:33:44.340Z,65.90
2022-10-12T20:38:46.062Z,66.02
2022-10-12T20:43:48.397Z,65.90
2022-10-12T20:48:52.537Z,65.96
2022-10-12T20:54:01.596Z,66.05
2022-10-12T20:59:03.451Z,66.25
2022-10-12T21:04:05.267Z,66.31
2022-10-12T21:09:07.355Z,66.41
2022-10-12T21:14:12.232Z,66.41
2022-10-12T21:19:15.943Z,66.32
2022-10-12T21:24:18.386Z,66.44
2022-10-12T21:29:20.543Z,66.37
2022-10-12T21:34:22.577Z,66.57
2022-10-12T21:39:24.411Z,66.67
2022-10-12T21:44:26.241Z,66.69
2022-10-12T21:49:28.070Z,66.78
2022-10-12T21:54:29.873Z,66.78
2022-10-12T21:59:31.690Z,66.79
2022-10-12T22:04:33.481Z,66.93
2022-10-12T22:09:35.679Z,66.83
2022-10-12T22:14:37.467Z,67.04
2022-10-12T22:19:39.421Z,66.88
2022-10-12T22:24:41.213Z,66.98
2022-10-12T22:29:43.109Z,67.16
2022-10-12T22:34:44.949Z,67.33
2022-10-12T22:39:47.012Z,67.40
2022-10-12T22:44:48.795Z,67.39
2022-10-12T22:49:50.556Z,67.44
2022-10-12T22:54:52.654Z,67.41
2022-10-12T22:59:54.491Z,67.69
2022-10-12T23:04:56.513Z,67.56
2022-10-12T23:09:58.278Z,67.76
2022-10-12T23:15:00.162Z,67.86
2022-10-12T23:20:02.116Z,68.09
2022-10-12T23:25:04.163Z,68.21
2022-10-12T23:30:06.648Z,68.42
2022-10-12T23:35:08.544Z,68.54
2022-10-12T23:40:10.964Z,68.70
2022-10-12T23:45:12.741Z,68.96
2022-10-12T23:50:14.647Z,69.03
2022-10-12T23:55:16.615Z,69.07
